Time;durP1;ratioP1;P1;durP2;ratioP2;P2;SDS_P1;SDS_P2;PMS_P1;PMS_P2;Temp;Humidity;BMP_temperature;BMP_pressure;BME280_temperature;BME280_humidity;BME280_pressure;Samples;Min_cycle;Max_cycle;Signal;HPM_P1;HPM_P2
2022/01/03 00:02:25;;;;;;;;;8.00;8.00;;;;;18.31;55.48;102819.41;5062029;28;45623;-87
2022/01/03 00:04:50;;;;;;;;;9.25;6.75;;;;;18.26;55.86;102805.44;5065757;27;45660;-87
2022/01/03 00:07:16;;;;;;;;;8.50;6.75;;;;;18.26;55.74;102799.19;5071891;27;45475;-87
2022/01/03 00:09:42;;;;;;;;;8.50;8.50;;;;;18.28;55.54;102797.25;5072601;27;45624;-87
2022/01/03 00:12:08;;;;;;;;;8.75;7.50;;;;;18.09;55.88;102766.25;5058105;27;45678;-88
2022/01/03 00:14:33;;;;;;;;;8.60;7.80;;;;;18.27;55.46;102798.25;5090683;27;45315;-87
2022/01/03 00:16:58;;;;;;;;;6.50;6.50;;;;;18.11;55.82;102775.06;5056813;27;48045;-87
2022/01/03 00:19:24;;;;;;;;;8.00;6.00;;;;;18.31;55.55;102805.13;5084126;27;45334;-87
2022/01/03 00:21:50;;;;;;;;;6.75;6.75;;;;;18.31;55.53;102802.44;5087418;27;46208;-87
2022/01/03 00:24:15;;;;;;;;;8.25;4.25;;;;;18.30;55.68;102803.41;5088119;27;45934;-87
2022/01/03 00:26:41;;;;;;;;;8.75;8.00;;;;;17.96;55.56;102742.03;5076764;27;45715;-87
2022/01/03 00:29:12;;;;;;;;;8.25;7.25;;;;;18.28;55.65;102786.50;5092254;27;45531;-87
2022/01/03 00:31:39;;;;;;;;;6.20;6.20;;;;;18.11;55.61;102769.69;5087766;27;46442;-87
2022/01/03 00:34:05;;;;;;;;;7.60;7.60;;;;;18.20;55.85;102781.63;5086831;27;45446;-87
2022/01/03 00:36:31;;;;;;;;;6.00;6.00;;;;;18.23;55.27;102787.69;5086102;27;45504;-88
2022/01/03 00:38:56;;;;;;;;;8.00;6.20;;;;;18.05;55.56;102753.97;5070486;27;45620;-87
2022/01/03 00:41:22;;;;;;;;;9.25;7.50;;;;;18.05;55.37;102762.91;5045964;28;49167;-87
2022/01/03 00:43:48;;;;;;;;;10.25;7.50;;;;;18.20;55.61;102779.81;5069166;27;45448;-87
2022/01/03 00:46:14;;;;;;;;;7.80;7.80;;;;;18.02;55.39;102753.22;5083035;27;45452;-88
2022/01/03 00:48:40;;;;;;;;;7.75;5.50;;;;;17.98;55.26;102732.06;5075405;27;45633;-88
2022/01/03 00:51:05;;;;;;;;;8.25;6.50;;;;;18.18;55.44;102749.50;5092200;27;47548;-88
2022/01/03 00:53:30;;;;;;;;;8.75;6.00;;;;;18.01;55.48;102730.00;5061185;27;45527;-87
2022/01/03 00:56:02;;;;;;;;;8.00;6.00;;;;;18.16;55.37;102754.09;5094383;27;45460;-87
2022/01/03 00:58:30;;;;;;;;;5.20;5.00;;;;;18.13;55.52;102755.19;5082790;27;45477;-87
2022/01/03 01:00:55;;;;;;;;;7.80;7.20;;;;;17.87;55.54;102714.00;5089456;27;45399;-87
2022/01/03 01:03:21;;;;;;;;;9.00;8.25;;;;;18.01;55.28;102734.53;5074457;27;45415;-87
2022/01/03 01:05:49;;;;;;;;;7.75;7.25;;;;;17.84;55.57;102700.78;5072289;27;47637;-87
2022/01/03 01:08:17;;;;;;;;;8.00;6.60;;;;;17.86;55.33;102698.84;5081036;27;45566;-87
2022/01/03 01:10:44;;;;;;;;;5.00;5.00;;;;;18.06;55.37;102734.22;5104341;27;46555;-87
2022/01/03 01:13:10;;;;;;;;;11.40;5.60;;;;;17.95;55.25;102722.41;5088277;27;45500;-87
2022/01/03 01:15:36;;;;;;;;;7.00;6.00;;;;;17.85;55.21;102695.28;5079417;27;45555;-87
2022/01/03 01:18:04;;;;;;;;;8.00;7.25;;;;;18.01;55.45;102716.59;5076429;27;45756;-87
2022/01/03 01:20:29;;;;;;;;;7.20;7.00;;;;;17.83;55.30;102683.81;5093220;27;47384;-87
2022/01/03 01:22:55;;;;;;;;;9.00;8.00;;;;;17.76;55.22;102671.75;5087938;27;45520;-87
2022/01/03 01:27:47;;;;;;;;;10.25;6.00;;;;;17.80;55.31;102692.94;5070636;27;45443;-87
2022/01/03 01:30:13;;;;;;;;;5.80;5.00;;;;;17.91;55.19;102721.72;5063479;27;45438;-87
2022/01/03 01:32:40;;;;;;;;;7.20;7.00;;;;;18.02;55.18;102744.31;5087213;27;45392;-87
2022/01/03 01:35:05;;;;;;;;;5.80;5.00;;;;;18.02;55.36;102750.53;5056772;27;45566;-87
2022/01/03 01:37:34;;;;;;;;;8.20;5.80;;;;;17.95;55.67;102735.81;5061969;27;45648;-88
2022/01/03 01:39:59;;;;;;;;;6.40;5.80;;;;;17.86;55.21;102717.63;5060182;27;45440;-87
2022/01/03 01:42:25;;;;;;;;;6.00;6.00;;;;;17.87;55.23;102724.75;5075008;27;45474;-87
2022/01/03 01:44:50;;;;;;;;;8.50;6.50;;;;;17.93;55.20;102740.41;5086480;27;45362;-87
2022/01/03 01:47:17;;;;;;;;;6.00;6.00;;;;;17.72;55.08;102695.28;5075144;27;45758;-87
2022/01/03 01:49:46;;;;;;;;;6.80;5.00;;;;;17.85;55.27;102721.28;5085196;27;46076;-87
2022/01/03 01:52:22;;;;;;;;;6.80;5.20;;;;;17.83;54.66;102720.53;5088613;27;45500;-87
2022/01/03 01:54:56;;;;;;;;;6.40;6.40;;;;;17.91;55.12;102731.59;5087987;27;47762;-87
2022/01/03 01:57:21;;;;;;;;;5.00;5.00;;;;;17.91;55.33;102732.47;5089244;27;45650;-87
2022/01/03 02:00:10;;;;;;;;;6.00;5.50;;;;;17.93;55.16;102740.41;5099391;27;45531;-87
2022/01/03 02:02:38;;;;;;;;;6.80;5.60;;;;;17.91;55.28;102736.97;5089675;27;45478;-87
2022/01/03 02:05:42;;;;;;;;;6.80;6.20;;;;;17.90;55.36;102745.97;5072265;27;45768;-87
2022/01/03 02:08:12;;;;;;;;;5.20;5.20;;;;;17.76;55.18;102723.63;5048874;28;45598;-86
2022/01/03 02:11:04;;;;;;;;;5.60;4.80;;;;;17.88;55.32;102739.88;5019981;28;45582;-87
2022/01/03 02:13:30;;;;;;;;;7.60;6.00;;;;;17.79;54.69;102722.53;5006281;28;45447;-87
2022/01/03 02:15:59;;;;;;;;;5.20;4.40;;;;;17.60;55.07;102704.13;5005829;28;45413;-86
2022/01/03 02:18:25;;;;;;;;;6.00;6.00;;;;;17.73;55.40;102729.19;5004177;28;45793;-87
2022/01/03 02:20:51;;;;;;;;;7.50;6.00;;;;;17.77;55.34;102736.09;4993372;28;48123;-86
2022/01/03 02:23:16;;;;;;;;;6.75;5.75;;;;;17.83;55.15;102742.00;4994889;28;45545;-86
2022/01/03 02:25:42;;;;;;;;;4.75;4.75;;;;;17.73;55.08;102723.81;5005207;28;46697;-86
2022/01/03 02:28:07;;;;;;;;;6.25;5.00;;;;;17.80;55.25;102733.19;5026318;28;45518;-87
2022/01/03 02:30:33;;;;;;;;;5.50;5.50;;;;;17.72;55.18;102715.88;4994182;28;45703;-87
2022/01/03 02:32:58;;;;;;;;;6.25;5.50;;;;;17.73;55.37;102720.28;5024019;28;45343;-86
2022/01/03 02:35:24;;;;;;;;;5.75;5.75;;;;;17.60;55.06;102706.81;5010857;28;45704;-86
2022/01/03 02:37:50;;;;;;;;;5.00;5.00;;;;;17.72;55.43;102722.13;4992377;28;45453;-86
2022/01/03 02:40:15;;;;;;;;;4.75;4.75;;;;;17.68;55.34;102693.75;5027231;28;45554;-86
2022/01/03 02:42:41;;;;;;;;;6.00;5.00;;;;;17.77;55.24;102724.47;5014343;28;54383;-87
2022/01/03 02:45:09;;;;;;;;;6.75;4.00;;;;;17.65;55.08;102713.59;4999599;28;45436;-87
2022/01/03 02:47:35;;;;;;;;;8.60;5.00;;;;;17.65;55.30;102710.03;5016652;28;45701;-87
2022/01/03 02:50:00;;;;;;;;;7.25;5.00;;;;;17.43;55.35;102673.91;5024471;27;46292;-87
2022/01/03 02:52:26;;;;;;;;;5.75;4.00;;;;;17.67;55.20;102719.72;5089737;27;45505;-86
2022/01/03 02:54:51;;;;;;;;;5.50;5.00;;;;;17.68;55.33;102720.56;5089570;27;46430;-86
2022/01/03 02:57:23;;;;;;;;;6.75;4.25;;;;;17.60;55.43;102696.94;5094291;27;45490;-87
2022/01/03 03:00:00;;;;;;;;;4.40;4.40;;;;;17.67;55.17;102708.13;5085682;27;45464;-86
2022/01/03 03:02:26;;;;;;;;;4.00;4.00;;;;;17.62;55.37;102695.00;5095726;27;45568;-86
2022/01/03 03:04:52;;;;;;;;;4.00;4.00;;;;;17.50;55.27;102671.69;5067667;27;45502;-86
2022/01/03 03:07:19;;;;;;;;;3.60;3.00;;;;;17.42;55.06;102650.72;5100173;27;45532;-86
2022/01/03 03:09:44;;;;;;;;;5.80;5.60;;;;;17.63;54.63;102690.50;5090065;27;46529;-87
2022/01/03 03:12:10;;;;;;;;;5.00;4.00;;;;;17.63;55.21;102685.13;5091213;27;45554;-86
2022/01/03 03:14:36;;;;;;;;;5.50;5.00;;;;;17.52;55.25;102676.00;5096384;27;46593;-86
2022/01/03 03:17:02;;;;;;;;;7.40;4.40;;;;;17.38;55.13;102662.63;5091379;27;45491;-86
2022/01/03 03:19:27;;;;;;;;;4.00;4.00;;;;;17.36;55.32;102652.84;5093694;27;45482;-87
2022/01/03 03:21:53;;;;;;;;;4.25;4.25;;;;;17.59;55.05;102679.09;5071205;27;45930;-86
2022/01/03 03:24:18;;;;;;;;;5.50;4.00;;;;;17.54;55.23;102670.50;5052537;28;48759;-86
2022/01/03 03:26:43;;;;;;;;;8.25;5.00;;;;;17.52;55.21;102665.25;5107728;27;45535;-87
2022/01/03 03:29:09;;;;;;;;;4.25;4.25;;;;;17.60;55.23;102674.59;5076200;27;46192;-86
2022/01/03 03:31:34;;;;;;;;;4.00;4.00;;;;;17.63;55.11;102686.00;5084317;27;47458;-86
2022/01/03 03:34:00;;;;;;;;;5.75;5.00;;;;;17.52;55.06;102654.53;5080113;27;45762;-86
2022/01/03 03:36:25;;;;;;;;;5.00;4.00;;;;;17.53;55.13;102666.97;5078105;27;45420;-87
2022/01/03 03:38:50;;;;;;;;;4.75;4.75;;;;;17.64;55.02;102681.50;5108833;27;54743;-87
2022/01/03 03:41:16;;;;;;;;;4.25;4.25;;;;;17.31;55.08;102644.25;5076822;27;46015;-86
2022/01/03 03:43:41;;;;;;;;;3.75;3.75;;;;;17.56;55.14;102682.00;5074169;27;45528;-87
2022/01/03 03:46:07;;;;;;;;;4.25;3.00;;;;;17.45;55.48;102650.50;5097862;27;45596;-87
2022/01/03 03:48:34;;;;;;;;;4.00;4.00;;;;;17.42;55.23;102650.72;5078499;27;47263;-86
2022/01/03 03:50:59;;;;;;;;;4.60;4.20;;;;;17.57;55.38;102665.81;5057925;27;45468;-86
2022/01/03 03:53:26;;;;;;;;;7.50;4.00;;;;;17.56;55.08;102666.75;5082349;27;45423;-86
2022/01/03 03:55:51;;;;;;;;;4.20;4.20;;;;;17.54;55.22;102666.00;5071466;27;45679;-87
2022/01/03 03:58:17;;;;;;;;;6.50;4.75;;;;;17.28;55.04;102614.94;5054550;27;46210;-86
2022/01/03 04:00:42;;;;;;;;;5.50;4.00;;;;;17.38;55.00;102622.38;5072468;27;45971;-87
2022/01/03 04:03:08;;;;;;;;;5.50;4.50;;;;;17.44;55.58;102643.44;5093873;27;45588;-87
2022/01/03 04:05:33;;;;;;;;;4.25;4.25;;;;;17.27;55.19;102621.25;5077907;27;48788;-86
2022/01/03 04:07:58;;;;;;;;;4.75;4.00;;;;;17.55;55.15;102656.13;5094198;27;46228;-86
2022/01/03 04:10:24;;;;;;;;;6.75;5.25;;;;;17.50;55.17;102643.00;5095342;27;45543;-86
2022/01/03 04:12:49;;;;;;;;;9.00;6.50;;;;;17.58;55.03;102655.94;5090787;27;45641;-87
2022/01/03 04:15:15;;;;;;;;;6.75;5.25;;;;;17.34;54.79;102611.84;5085491;27;45607;-87
2022/01/03 04:17:40;;;;;;;;;4.75;4.75;;;;;17.56;55.21;102642.59;5108182;27;46117;-86
2022/01/03 04:20:06;;;;;;;;;6.25;4.50;;;;;17.33;55.32;102606.56;5078673;27;45595;-86
2022/01/03 04:22:32;;;;;;;;;4.60;4.60;;;;;17.54;54.98;102639.16;5068819;27;45487;-87
2022/01/03 04:24:57;;;;;;;;;6.00;5.25;;;;;17.32;55.03;102608.41;5086085;27;45561;-87
2022/01/03 04:27:23;;;;;;;;;4.00;4.00;;;;;17.43;54.80;102612.19;5085599;27;46355;-86
2022/01/03 04:29:48;;;;;;;;;4.00;3.25;;;;;17.34;55.10;102595.75;5091682;27;45659;-86
2022/01/03 04:32:14;;;;;;;;;4.00;4.00;;;;;17.27;54.94;102589.06;5073296;28;45400;-87
2022/01/03 04:34:39;;;;;;;;;7.25;4.00;;;;;17.45;54.83;102610.25;5097511;27;45536;-87
2022/01/03 04:37:04;;;;;;;;;7.75;5.00;;;;;17.53;55.16;102615.09;5076972;27;47454;-87
2022/01/03 04:39:30;;;;;;;;;5.75;4.50;;;;;17.22;55.08;102556.31;5078961;27;45475;-87
2022/01/03 04:41:55;;;;;;;;;4.00;4.00;;;;;17.42;55.56;102600.59;5093903;27;45749;-87
2022/01/03 04:44:21;;;;;;;;;4.50;4.50;;;;;17.53;55.17;102610.59;5075026;27;47470;-86
2022/01/03 04:46:46;;;;;;;;;5.75;4.00;;;;;17.53;55.29;102596.31;5063720;27;50904;-87
2022/01/03 04:49:12;;;;;;;;;6.75;4.50;;;;;17.40;55.04;102577.53;5061922;28;46368;-87
2022/01/03 04:51:37;;;;;;;;;4.25;4.25;;;;;17.41;55.20;102581.94;5081491;27;45836;-87
2022/01/03 04:54:03;;;;;;;;;5.75;3.75;;;;;17.40;55.33;102583.75;5074633;27;45542;-87
2022/01/03 04:56:29;;;;;;;;;4.75;3.75;;;;;17.54;55.20;102604.28;5103604;27;46743;-86
2022/01/03 04:58:55;;;;;;;;;5.75;5.00;;;;;17.29;55.15;102563.00;5103721;27;45660;-86
2022/01/03 05:01:21;;;;;;;;;5.20;4.00;;;;;17.29;55.28;102560.34;5061199;28;45497;-87
2022/01/03 05:03:46;;;;;;;;;4.40;4.40;;;;;17.41;55.63;102584.63;5069663;27;48230;-86
2022/01/03 05:06:12;;;;;;;;;4.00;4.00;;;;;17.34;55.09;102568.94;5089118;27;46132;-86
2022/01/03 05:08:38;;;;;;;;;6.25;5.00;;;;;17.34;55.35;102563.56;5089581;27;45629;-85
2022/01/03 05:11:03;;;;;;;;;4.75;4.75;;;;;17.43;55.24;102569.25;5078639;27;45415;-86
2022/01/03 05:13:29;;;;;;;;;5.25;4.75;;;;;17.48;55.18;102588.59;5081548;27;45599;-86
2022/01/03 05:15:55;;;;;;;;;5.00;4.80;;;;;17.39;55.50;102581.16;5086576;27;45600;-86
2022/01/03 05:18:21;;;;;;;;;5.75;5.00;;;;;17.56;55.29;102605.03;5088905;27;45297;-86
2022/01/03 05:20:46;;;;;;;;;5.25;4.25;;;;;17.31;55.06;102563.75;5092914;27;45594;-86
2022/01/03 05:23:12;;;;;;;;;5.50;4.00;;;;;17.56;55.52;102599.66;5074398;27;45413;-87
2022/01/03 05:25:37;;;;;;;;;4.50;4.50;;;;;17.56;55.59;102599.66;5083773;27;45924;-86
2022/01/03 05:28:03;;;;;;;;;6.50;6.50;;;;;17.45;55.35;102572.69;5084378;27;45573;-85
2022/01/03 05:30:28;;;;;;;;;5.75;5.75;;;;;17.61;55.31;102593.13;5063548;28;45502;-86
2022/01/03 05:32:53;;;;;;;;;7.00;3.50;;;;;17.50;55.26;102577.78;5074658;27;45425;-86
2022/01/03 05:35:19;;;;;;;;;5.00;4.00;;;;;17.43;55.06;102566.59;5094409;27;50180;-86
2022/01/03 05:37:44;;;;;;;;;3.50;3.50;;;;;17.58;55.50;102578.94;5077563;27;49835;-86
2022/01/03 05:40:10;;;;;;;;;5.50;2.75;;;;;17.56;55.16;102572.81;5066682;27;45638;-86
2022/01/03 05:42:35;;;;;;;;;6.50;5.00;;;;;17.49;55.42;102554.56;5085796;27;45526;-86
2022/01/03 05:45:01;;;;;;;;;3.00;3.00;;;;;17.64;55.34;102579.50;5069623;27;46163;-86
2022/01/03 05:47:26;;;;;;;;;4.00;4.00;;;;;17.35;55.16;102532.25;5077198;27;45369;-86
2022/01/03 05:49:53;;;;;;;;;4.00;4.00;;;;;17.36;55.02;102529.44;5090898;27;45392;-87
2022/01/03 05:52:19;;;;;;;;;4.00;4.00;;;;;17.60;54.88;102559.19;5069230;27;45355;-87
2022/01/03 05:54:44;;;;;;;;;2.50;2.50;;;;;17.37;55.37;102519.56;5055746;27;47072;-87
2022/01/03 05:57:10;;;;;;;;;6.00;5.50;;;;;17.49;55.27;102538.47;5088746;27;45493;-87
2022/01/03 05:59:35;;;;;;;;;7.75;4.00;;;;;17.62;55.19;102554.56;5072752;27;45305;-86
2022/01/03 06:02:01;;;;;;;;;4.75;3.00;;;;;17.62;55.25;102549.22;5090480;27;45572;-86
2022/01/03 06:04:40;;;;;;;;;4.40;4.00;;;;;17.66;55.10;102551.59;5095152;27;45562;-87
2022/01/03 06:07:08;;;;;;;;;4.40;4.40;;;;;17.66;55.28;102540.00;5082753;27;45530;-87
2022/01/03 06:09:33;;;;;;;;;4.20;3.60;;;;;17.63;55.35;102534.84;5086683;27;45538;-87
2022/01/03 06:11:58;;;;;;;;;5.50;4.00;;;;;17.39;55.15;102489.94;5066833;27;45401;-86
2022/01/03 06:14:24;;;;;;;;;4.25;4.25;;;;;17.52;55.49;102511.44;5071454;27;55683;-86
2022/01/03 06:16:50;;;;;;;;;5.00;3.00;;;;;17.49;55.50;102501.78;5057724;27;45337;-86
2022/01/03 06:19:15;;;;;;;;;3.25;3.25;;;;;17.62;55.53;102522.38;5068167;27;45521;-86
2022/01/03 06:21:41;;;;;;;;;2.00;2.00;;;;;17.57;55.37;102515.53;5082353;27;46114;-86
2022/01/03 06:24:08;;;;;;;;;4.50;3.25;;;;;17.67;55.13;102525.63;5073450;27;46197;-86
2022/01/03 06:26:33;;;;;;;;;4.20;4.20;;;;;17.57;55.12;102510.16;5066840;27;45642;-86
2022/01/03 06:28:59;;;;;;;;;4.25;4.00;;;;;17.40;55.42;102492.53;5086917;27;45550;-86
2022/01/03 06:31:24;;;;;;;;;4.00;4.00;;;;;17.67;55.44;102526.47;5089644;27;47376;-87
2022/01/03 06:33:50;;;;;;;;;2.50;2.50;;;;;17.41;55.20;102486.19;5060900;27;46378;-86
2022/01/03 06:36:15;;;;;;;;;3.00;3.00;;;;;17.55;55.41;102496.00;5067404;27;45537;-86
2022/01/03 06:38:40;;;;;;;;;8.75;5.00;;;;;17.63;55.11;102516.06;5072883;27;45631;-86
2022/01/03 06:41:06;;;;;;;;;4.25;4.25;;;;;17.68;55.09;102532.69;5063853;28;45355;-87
2022/01/03 06:43:31;;;;;;;;;3.00;3.00;;;;;17.54;55.22;102510.38;5051206;27;47438;-86
2022/01/03 06:45:57;;;;;;;;;3.00;3.00;;;;;17.42;55.00;102484.38;5066545;27;46852;-86
2022/01/03 06:48:25;;;;;;;;;5.00;3.00;;;;;17.61;55.41;102518.84;5070274;27;45427;-87
2022/01/03 06:50:51;;;;;;;;;4.60;4.60;;;;;17.43;55.19;102502.19;5091460;27;45403;-87
2022/01/03 06:53:16;;;;;;;;;3.25;3.25;;;;;17.44;55.36;102498.56;5089432;27;46178;-87
2022/01/03 06:55:42;;;;;;;;;3.00;3.00;;;;;17.67;55.43;102539.88;5085345;27;45669;-87
2022/01/03 06:58:07;;;;;;;;;4.00;4.00;;;;;17.58;54.76;102521.75;5068192;27;45716;-87
2022/01/03 07:00:33;;;;;;;;;4.50;2.75;;;;;17.66;55.29;102530.13;5072419;27;45739;-87
2022/01/03 07:02:58;;;;;;;;;6.25;3.75;;;;;17.72;55.37;102539.56;5056715;27;46260;-87
2022/01/03 07:05:24;;;;;;;;;4.00;4.00;;;;;17.68;54.94;102527.31;5071746;27;45733;-87
2022/01/03 07:07:49;;;;;;;;;4.00;4.00;;;;;17.57;55.32;102499.41;5067647;27;45486;-87
2022/01/03 07:10:17;;;;;;;;;3.25;3.25;;;;;17.54;55.23;102488.91;5087773;27;45656;-87
2022/01/03 07:12:43;;;;;;;;;7.60;4.00;;;;;17.67;55.14;102509.53;5071104;27;47047;-88
2022/01/03 07:20:36;;;;;;;;;6.40;5.00;;;;;17.75;55.20;102517.91;5073476;27;45551;-88
2022/01/03 07:23:01;;;;;;;;;6.50;4.50;;;;;17.44;55.39;102467.19;5074270;27;46982;-87
2022/01/03 07:25:27;;;;;;;;;4.25;3.25;;;;;17.79;55.50;102516.69;5067055;27;45525;-88
2022/01/03 07:27:52;;;;;;;;;5.50;3.00;;;;;17.50;55.46;102459.72;5109671;27;45376;-88
2022/01/03 07:30:18;;;;;;;;;3.00;3.00;;;;;17.75;55.02;102507.16;5094580;27;45377;-88
2022/01/03 07:32:43;;;;;;;;;4.00;3.00;;;;;17.53;55.68;102481.78;5107075;27;46143;-88
2022/01/03 07:35:13;;;;;;;;;5.25;2.50;;;;;17.64;55.53;102507.03;5078336;27;45237;-88
2022/01/03 07:37:39;;;;;;;;;3.80;3.80;;;;;17.80;54.60;102526.47;5069299;28;45507;-88
2022/01/03 07:40:05;;;;;;;;;3.25;3.25;;;;;17.79;54.96;102531.94;5101990;27;45499;-92
2022/01/03 07:42:30;;;;;;;;;5.00;5.00;;;;;17.76;55.61;102513.34;5087897;27;45839;-93
2022/01/03 07:44:56;;;;;;;;;3.00;3.00;;;;;17.76;55.62;102495.44;5060889;27;47743;-89
2022/01/03 07:47:21;;;;;;;;;5.00;4.00;;;;;17.55;55.64;102469.16;5066646;27;45870;-88
2022/01/03 07:49:47;;;;;;;;;5.75;4.25;;;;;17.53;55.25;102444.22;5078471;27;45655;-92
2022/01/03 07:52:12;;;;;;;;;6.00;4.50;;;;;17.56;55.53;102460.13;5075244;27;48055;-92
2022/01/03 07:54:37;;;;;;;;;3.50;3.00;;;;;17.58;55.74;102452.81;5076477;27;45557;-91
2022/01/03 07:57:03;;;;;;;;;3.25;3.25;;;;;17.55;55.50;102458.41;5090871;27;45470;-90
2022/01/03 07:59:28;;;;;;;;;5.00;4.00;;;;;17.67;55.90;102466.56;5105085;27;45424;-88
2022/01/03 08:01:54;;;;;;;;;6.00;3.25;;;;;17.71;55.86;102457.31;5079558;27;45956;-91
2022/01/03 08:04:19;;;;;;;;;6.50;3.50;;;;;17.84;55.54;102468.06;5061274;28;45328;-95
2022/01/03 08:06:45;;;;;;;;;5.50;4.00;;;;;17.52;56.09;102421.06;5053594;27;45446;-92
2022/01/03 08:09:11;;;;;;;;;4.75;4.75;;;;;17.84;55.90;102460.00;5096819;27;45453;-95
2022/01/03 08:11:36;;;;;;;;;7.75;4.50;;;;;17.65;55.76;102433.59;5082524;27;47833;-89
2022/01/03 08:14:01;;;;;;;;;7.00;5.25;;;;;17.62;55.62;102437.34;5059891;27;45464;-89
2022/01/03 08:16:27;;;;;;;;;5.50;4.00;;;;;17.50;55.79;102409.56;5078275;27;45394;-93
2022/01/03 08:18:52;;;;;;;;;4.00;3.00;;;;;17.79;55.35;102460.31;5075643;27;45439;-90
2022/01/03 08:21:18;;;;;;;;;4.50;4.50;;;;;17.53;55.56;102419.22;5062938;27;46369;-90
2022/01/03 08:23:43;;;;;;;;;2.75;1.50;;;;;17.45;55.23;102419.75;5095381;27;45316;-91
2022/01/03 08:26:09;;;;;;;;;3.75;3.75;;;;;17.67;55.28;102448.63;5076587;27;47314;-90
2022/01/03 08:28:34;;;;;;;;;5.75;4.25;;;;;17.45;55.52;102404.53;5088100;27;45497;-90
2022/01/03 08:30:59;;;;;;;;;15.50;9.25;;;;;17.46;55.31;102403.56;5072096;27;46764;-89
2022/01/03 08:33:25;;;;;;;;;11.25;10.25;;;;;17.45;55.39;102399.16;5108613;27;45496;-88
2022/01/03 08:35:50;;;;;;;;;12.25;11.75;;;;;17.61;55.32;102429.44;5060182;27;45481;-88
2022/01/03 08:38:16;;;;;;;;;16.50;10.75;;;;;17.53;55.44;102411.16;5078277;27;45562;-89
2022/01/03 08:40:41;;;;;;;;;12.00;10.25;;;;;17.65;55.46;102436.28;5098570;27;46090;-89
2022/01/03 08:43:06;;;;;;;;;9.50;9.25;;;;;17.69;55.13;102440.47;5084834;27;45484;-89
2022/01/03 08:45:32;;;;;;;;;12.00;9.00;;;;;17.73;55.43;102450.00;5075070;27;49190;-89
2022/01/03 08:47:58;;;;;;;;;10.75;5.50;;;;;17.51;55.44;102411.28;5110890;27;45490;-88
2022/01/03 08:50:23;;;;;;;;;12.50;10.75;;;;;17.69;55.35;102437.78;5094520;27;46743;-88
2022/01/03 08:52:49;;;;;;;;;11.50;8.00;;;;;17.72;55.20;102451.00;5062789;27;48340;-89
2022/01/03 08:55:14;;;;;;;;;9.75;8.75;;;;;17.65;55.47;102436.28;5059022;27;45498;-93
2022/01/03 08:57:41;;;;;;;;;8.50;8.00;;;;;17.68;55.14;102436.06;5086486;27;45458;-93
2022/01/03 09:00:07;;;;;;;;;8.20;7.40;;;;;17.63;55.29;102428.34;5063349;27;48193;-94
2022/01/03 09:02:32;;;;;;;;;8.60;8.20;;;;;17.67;55.13;102445.09;5079141;27;45488;-90
2022/01/03 09:04:58;;;;;;;;;9.50;9.50;;;;;17.65;55.33;102433.59;5062920;27;45294;-95
2022/01/03 09:07:23;;;;;;;;;11.00;8.25;;;;;17.55;55.38;102426.22;5055754;27;45347;-92
2022/01/03 09:09:49;;;;;;;;;11.00;7.25;;;;;17.56;55.42;102427.91;5078160;27;46953;-89
2022/01/03 09:12:14;;;;;;;;;8.00;6.75;;;;;17.65;55.62;102441.66;5107592;27;45504;-89
2022/01/03 09:14:40;;;;;;;;;9.75;7.50;;;;;17.64;55.26;102445.31;5070352;27;45614;-90
2022/01/03 09:17:05;;;;;;;;;11.25;6.50;;;;;17.85;55.89;102479.63;5074065;27;45700;-88
2022/01/03 09:19:31;;;;;;;;;10.75;10.50;;;;;17.88;55.43;102484.78;5070884;27;46934;-88
2022/01/03 09:22:09;;;;;;;;;8.25;7.50;;;;;17.85;55.33;102474.28;5093132;27;45511;-88
2022/01/03 09:24:46;;;;;;;;;8.20;5.80;;;;;17.82;55.46;102463.75;5077856;27;47012;-88
2022/01/03 09:29:57;;;;;;;;;9.00;7.80;;;;;17.80;55.23;102462.06;5093869;27;45900;-91
2022/01/03 09:32:22;;;;;;;;;10.00;6.75;;;;;17.82;55.37;102469.13;5061123;27;45364;-91
2022/01/03 09:34:48;;;;;;;;;9.50;5.75;;;;;17.90;55.55;102475.66;5095228;27;45754;-91
2022/01/03 09:37:19;;;;;;;;;9.75;6.00;;;;;17.85;55.48;102468.91;5080186;27;45631;-88
2022/01/03 09:39:44;;;;;;;;;8.60;7.00;;;;;17.69;55.49;102421.69;5072836;27;47412;-88
2022/01/03 09:42:11;;;;;;;;;7.00;5.50;;;;;17.63;55.74;102419.44;5062345;27;45423;-91
2022/01/03 09:44:36;;;;;;;;;8.00;6.60;;;;;17.68;55.51;102420.81;5086799;27;45357;-90
2022/01/03 09:47:04;;;;;;;;;9.00;6.00;;;;;17.60;55.29;102403.53;5073183;27;45312;-89
2022/01/03 09:49:35;;;;;;;;;11.00;6.60;;;;;17.76;55.44;102433.69;5078482;27;47106;-89
2022/01/03 09:52:01;;;;;;;;;7.60;5.40;;;;;17.72;55.43;102416.09;5097462;27;45362;-90
2022/01/03 09:54:27;;;;;;;;;4.80;4.80;;;;;17.67;55.49;102411.03;5084543;27;45546;-91
2022/01/03 09:56:52;;;;;;;;;6.00;6.00;;;;;17.88;55.48;102441.84;5090551;27;45887;-91
2022/01/03 09:59:18;;;;;;;;;7.25;6.00;;;;;17.61;55.12;102397.22;5058854;27;47272;-89
2022/01/03 10:01:44;;;;;;;;;6.00;5.25;;;;;17.79;55.26;102428.09;5088741;27;45733;-89
2022/01/03 10:04:10;;;;;;;;;5.75;4.50;;;;;17.78;55.63;102428.22;5083498;27;45786;-89
2022/01/03 10:06:36;;;;;;;;;7.25;6.25;;;;;17.80;55.43;102429.84;5083119;27;45493;-93
2022/01/03 10:09:01;;;;;;;;;10.50;8.50;;;;;17.86;55.04;102431.22;5062373;27;48575;-92
2022/01/03 10:11:27;;;;;;;;;6.25;5.50;;;;;17.87;55.30;102430.22;5045401;28;45490;-92
2022/01/03 10:13:53;;;;;;;;;6.00;4.75;;;;;17.82;55.34;102416.28;5096814;27;45944;-92
2022/01/03 10:16:18;;;;;;;;;8.00;6.25;;;;;18.01;55.32;102431.91;5090415;27;45354;-91
2022/01/03 10:18:47;;;;;;;;;5.00;3.75;;;;;17.93;55.54;102412.00;5050613;27;47614;-89
2022/01/03 10:21:12;;;;;;;;;9.00;6.40;;;;;17.86;55.35;102400.81;5090653;27;45606;-88
2022/01/03 10:23:58;;;;;;;;;7.50;4.00;;;;;17.72;55.33;102373.16;5084904;27;45419;-90
2022/01/03 10:26:23;;;;;;;;;7.40;5.00;;;;;17.88;55.50;102397.06;5059507;27;45458;-90
2022/01/03 10:28:49;;;;;;;;;5.25;5.25;;;;;17.90;55.56;102394.25;5069057;27;45936;-91
2022/01/03 10:31:18;;;;;;;;;7.75;5.25;;;;;17.84;55.65;102375.94;5088830;27;45640;-91
2022/01/03 10:33:44;;;;;;;;;7.80;5.20;;;;;18.05;55.45;102407.53;5088838;27;45525;-90
2022/01/03 10:36:28;;;;;;;;;5.50;5.00;;;;;17.83;55.59;102364.31;5089603;27;45509;-91
2022/01/03 10:38:53;;;;;;;;;8.60;4.60;;;;;17.88;55.50;102361.28;5075096;27;48092;-90
2022/01/03 10:41:22;;;;;;;;;6.50;5.00;;;;;17.80;55.46;102343.94;5062405;27;45419;-91
2022/01/03 10:43:52;;;;;;;;;7.60;5.80;;;;;17.97;55.30;102360.63;5090472;27;45289;-91
2022/01/03 10:46:18;;;;;;;;;10.50;6.75;;;;;18.16;55.25;102370.00;5072918;27;45571;-91
2022/01/03 10:48:44;;;;;;;;;7.00;5.20;;;;;17.94;55.47;102327.75;5103244;27;47264;-90
2022/01/03 10:51:09;;;;;;;;;5.00;5.00;;;;;17.98;55.19;102331.94;5077111;27;45393;-91
2022/01/03 10:53:39;;;;;;;;;6.00;5.50;;;;;17.99;55.48;102334.50;5054939;27;45309;-90
2022/01/03 10:56:23;;;;;;;;;8.00;7.60;;;;;18.23;55.26;102365.94;5073752;27;45639;-91
2022/01/03 10:58:49;;;;;;;;;7.80;4.60;;;;;17.94;55.27;102320.56;5075951;27;47818;-90
2022/01/03 11:01:20;;;;;;;;;5.60;5.60;;;;;18.02;55.14;102318.16;5062738;27;45516;-91
2022/01/03 11:03:46;;;;;;;;;8.00;6.80;;;;;18.08;55.35;102316.84;5093025;27;45398;-90
2022/01/03 11:06:23;;;;;;;;;8.40;8.40;;;;;18.23;55.37;102331.00;5072063;27;45725;-91
2022/01/03 11:11:36;;;;;;;;;5.40;4.60;;;;;18.10;55.50;102284.53;5067509;27;46028;-93
2022/01/03 11:14:02;;;;;;;;;9.60;7.20;;;;;17.99;54.82;102270.06;5058698;27;45482;-91
2022/01/03 11:16:34;;;;;;;;;5.50;4.25;;;;;18.13;55.11;102284.28;5059093;27;45431;-91
2022/01/03 11:19:00;;;;;;;;;5.60;5.60;;;;;18.28;55.24;102292.19;5075626;27;47100;-91
2022/01/03 11:21:26;;;;;;;;;8.00;7.00;;;;;18.14;55.21;102261.81;5079611;27;45578;-91
2022/01/03 11:24:00;;;;;;;;;7.40;6.80;;;;;18.40;55.21;102293.94;5083338;27;45383;-91
2022/01/03 11:26:27;;;;;;;;;5.80;4.60;;;;;18.23;55.17;102269.22;5107669;27;45509;-91
2022/01/03 11:28:52;;;;;;;;;5.80;5.00;;;;;18.33;55.04;102273.91;5073964;27;47322;-91
2022/01/03 11:31:19;;;;;;;;;4.75;4.75;;;;;18.15;55.25;102239.38;5060936;27;45475;-91
2022/01/03 11:33:46;;;;;;;;;7.20;7.20;;;;;18.34;55.07;102262.16;5089084;27;45458;-91
2022/01/03 11:36:11;;;;;;;;;7.80;6.20;;;;;18.41;55.02;102270.63;5064673;27;45538;-91